Aviation Digital Data Service (ADDS)

Output produced by METARs form (0255 UTC 25 May 2017)
found at http://www.aviationweather.gov/adds/metars/
 
OKBK 250200Z 36014KT 7000 NSC 28/10 Q1010 NOSIG
TAF OKBK 242245Z 2500/2606 35012G25KT 8000 NSC 
     TEMPO 2500/2512 2000 BLDU 
     BECMG 2515/2517 6000